Time;durP1;ratioP1;P1;durP2;ratioP2;P2;SDS_P1;SDS_P2;PMS_P1;PMS_P2;Temp;Humidity;BMP_temperature;BMP_pressure;BME280_temperature;BME280_humidity;BME280_pressure;Samples;Min_cycle;Max_cycle;Signal;HPM_P1;HPM_P2
2023/05/27 00:02:00;;;;;;;;;;;;;;;16.57;58.80;100612.91;5082007;28;1229;-63
2023/05/27 00:04:26;;;;;;;;;;;;;;;17.52;58.05;100615.06;5078651;28;1085;-65
2023/05/27 00:06:51;;;;;;;;;;;;;;;16.79;58.80;100614.50;5078393;28;1887;-63
2023/05/27 00:09:17;;;;;;;;;;;;;;;16.46;58.39;100616.75;5060889;28;1125;-64
2023/05/27 00:11:42;;;;;;;;;;;;;;;16.28;58.06;100620.91;5083487;28;1042;-63
2023/05/27 00:14:08;;;;;;;;;;;;;;;16.17;57.60;100613.78;5078384;28;1054;-64
2023/05/27 00:16:36;;;;;;;;;;;;;;;16.10;57.40;100613.22;5078063;28;1046;-65
2023/05/27 00:19:02;;;;;;;;;;;;;;;15.93;57.35;100616.25;5078612;28;1050;-66
2023/05/27 00:21:27;;;;;;;;;;;;;;;15.91;57.04;100616.50;5078547;28;1126;-61
2023/05/27 00:23:53;;;;;;;;;;;;;;;16.10;57.89;100607.75;5086534;28;1107;-61
2023/05/27 00:26:18;;;;;;;;;;;;;;;17.36;58.68;100606.06;5082470;28;1898;-60
2023/05/27 00:28:48;;;;;;;;;;;;;;;16.87;58.64;100604.88;5078119;28;1162;-62
2023/05/27 00:31:14;;;;;;;;;;;;;;;16.52;58.45;100599.22;5077808;28;1157;-62
2023/05/27 00:33:40;;;;;;;;;;;;;;;16.35;57.79;100604.97;5078117;28;1082;-64
2023/05/27 00:36:06;;;;;;;;;;;;;;;16.15;57.80;100605.81;5084775;28;1156;-64
2023/05/27 00:38:31;;;;;;;;;;;;;;;16.11;57.22;100607.47;5078356;28;1050;-65
2023/05/27 00:40:57;;;;;;;;;;;;;;;15.97;57.21;100603.63;5077560;28;1007;-65
2023/05/27 00:43:22;;;;;;;;;;;;;;;16.12;58.43;100597.31;5077446;28;1034;-65
2023/05/27 00:45:48;;;;;;;;;;;;;;;17.41;58.30;100595.06;5077823;28;1898;-65
2023/05/27 00:48:13;;;;;;;;;;;;;;;17.09;58.59;100597.13;5052368;28;987;-65
2023/05/27 00:50:39;;;;;;;;;;;;;;;16.55;58.76;100593.16;5054361;28;1390;-65
2023/05/27 00:53:05;;;;;;;;;;;;;;;16.40;58.12;100598.69;5077944;28;1122;-62
2023/05/27 00:55:30;;;;;;;;;;;;;;;16.24;57.53;100597.84;5059576;28;1083;-64
2023/05/27 00:57:56;;;;;;;;;;;;;;;16.13;57.46;100587.97;5059316;28;1575;-64
2023/05/27 01:00:22;;;;;;;;;;;;;;;16.04;57.14;100591.28;5050269;28;1541;-65
2023/05/27 01:02:47;;;;;;;;;;;;;;;15.92;56.99;100590.72;5059733;28;1601;-63
2023/05/27 01:05:14;;;;;;;;;;;;;;;15.89;56.83;100585.78;5077503;28;1910;-63
2023/05/27 01:07:45;;;;;;;;;;;;;;;15.79;56.74;100583.03;5077676;28;1106;-63
2023/05/27 01:10:15;;;;;;;;;;;;;;;16.80;58.84;100571.38;5076924;28;1019;-64
2023/05/27 01:12:46;;;;;;;;;;;;;;;17.63;57.81;100578.16;5060924;28;1200;-63
2023/05/27 01:15:12;;;;;;;;;;;;;;;16.74;58.61;100568.66;5059274;28;1117;-62
2023/05/27 01:17:42;;;;;;;;;;;;;;;16.48;58.24;100575.31;5077276;28;1225;-62
2023/05/27 01:20:10;;;;;;;;;;;;;;;16.33;57.90;100573.44;5076718;28;1091;-62
2023/05/27 01:22:35;;;;;;;;;;;;;;;16.09;57.63;100582.25;5059444;28;1078;-62
2023/05/27 01:25:02;;;;;;;;;;;;;;;16.06;57.20;100572.63;5085797;28;1070;-63
2023/05/27 01:27:28;;;;;;;;;;;;;;;15.98;56.81;100577.84;5059208;28;1901;-62
2023/05/27 01:29:53;;;;;;;;;;;;;;;15.91;56.64;100572.66;5077067;28;1121;-62
2023/05/27 01:32:25;;;;;;;;;;;;;;;16.11;58.40;100568.25;5076295;28;1082;-61
2023/05/27 01:34:52;;;;;;;;;;;;;;;17.42;58.56;100566.47;5077029;28;1087;-61
2023/05/27 01:37:18;;;;;;;;;;;;;;;16.82;58.89;100566.47;5079147;28;922;-61
2023/05/27 01:39:44;;;;;;;;;;;;;;;16.47;58.41;100569.03;5058971;28;1072;-62
2023/05/27 01:42:09;;;;;;;;;;;;;;;16.29;57.92;100570.41;5076723;28;1240;-63
2023/05/27 01:44:35;;;;;;;;;;;;;;;16.11;57.70;100562.75;5055650;28;1198;-62
2023/05/27 01:47:01;;;;;;;;;;;;;;;16.02;57.25;100568.81;5076421;28;1987;-62
2023/05/27 01:49:28;;;;;;;;;;;;;;;15.93;56.97;100567.69;5067675;28;1354;-63
2023/05/27 01:51:53;;;;;;;;;;;;;;;15.91;56.76;100572.66;5076326;28;1097;-63
2023/05/27 01:54:19;;;;;;;;;;;;;;;16.43;58.75;100574.22;5058246;28;1166;-62
2023/05/27 01:56:44;;;;;;;;;;;;;;;17.40;58.15;100569.50;5076816;28;1162;-62
2023/05/27 01:59:12;;;;;;;;;;;;;;;16.64;58.90;100567.88;5058706;28;1270;-62
2023/05/27 02:01:38;;;;;;;;;;;;;;;16.32;58.16;100564.38;5060827;28;1261;-62
2023/05/27 02:04:03;;;;;;;;;;;;;;;16.18;57.80;100557.81;5058681;28;1202;-61
2023/05/27 02:06:29;;;;;;;;;;;;;;;16.06;57.49;100569.91;5058832;28;1905;-61
2023/05/27 02:08:55;;;;;;;;;;;;;;;15.95;57.20;100562.78;5058247;28;1156;-61
2023/05/27 02:11:20;;;;;;;;;;;;;;;16.22;58.57;100558.91;5075876;28;1006;-61
2023/05/27 02:13:46;;;;;;;;;;;;;;;17.47;58.23;100554.59;5069469;28;1105;-61
2023/05/27 02:16:12;;;;;;;;;;;;;;;16.93;58.54;100559.84;5058321;28;1378;-61
2023/05/27 02:18:38;;;;;;;;;;;;;;;16.57;58.30;100551.69;5058107;28;1091;-61
2023/05/27 02:21:05;;;;;;;;;;;;;;;16.28;57.96;100546.00;5058519;28;1145;-61
2023/05/27 02:23:31;;;;;;;;;;;;;;;16.15;57.70;100545.47;5074799;28;1046;-62
2023/05/27 02:25:57;;;;;;;;;;;;;;;16.04;57.66;100552.06;5076183;28;1984;-61
2023/05/27 02:28:22;;;;;;;;;;;;;;;15.97;57.04;100555.06;5076288;28;1158;-61
2023/05/27 02:30:49;;;;;;;;;;;;;;;15.92;56.91;100546.84;5057825;28;1245;-61
2023/05/27 02:33:16;;;;;;;;;;;;;;;16.74;58.88;100551.38;5058056;28;1210;-61
2023/05/27 02:35:42;;;;;;;;;;;;;;;17.38;58.01;100557.97;5058265;28;1343;-61
2023/05/27 02:38:07;;;;;;;;;;;;;;;16.64;58.84;100552.22;5082698;28;1130;-61
2023/05/27 02:40:33;;;;;;;;;;;;;;;16.37;58.21;100558.06;5068262;28;1043;-66
2023/05/27 02:42:58;;;;;;;;;;;;;;;16.21;57.90;100565.50;5057787;28;1115;-66
2023/05/27 02:45:25;;;;;;;;;;;;;;;16.17;57.09;100559.75;5076141;28;2008;-64
2023/05/27 02:47:51;;;;;;;;;;;;;;;16.18;58.26;100558.63;5057874;28;1148;-66
2023/05/27 02:50:16;;;;;;;;;;;;;;;17.47;58.18;100558.16;5070408;28;893;-65
2023/05/27 02:52:42;;;;;;;;;;;;;;;16.81;58.54;100562.06;5055895;28;1039;-65
2023/05/27 02:55:07;;;;;;;;;;;;;;;16.45;58.36;100562.97;5075815;28;1047;-65
2023/05/27 02:57:33;;;;;;;;;;;;;;;16.29;58.14;100562.19;5062888;28;1193;-65
2023/05/27 02:59:58;;;;;;;;;;;;;;;16.16;57.67;100568.22;5084525;28;1129;-65
2023/05/27 03:02:24;;;;;;;;;;;;;;;16.07;57.20;100566.06;5057402;28;1341;-65
2023/05/27 03:04:50;;;;;;;;;;;;;;;15.99;57.19;100574.00;5057612;28;1245;-67
2023/05/27 03:07:15;;;;;;;;;;;;;;;15.96;56.77;100569.88;5075571;28;1976;-66
2023/05/27 03:09:41;;;;;;;;;;;;;;;15.86;56.74;100565.22;5075749;28;1038;-63
2023/05/27 03:12:06;;;;;;;;;;;;;;;16.71;58.57;100573.91;5075762;28;1151;-63
2023/05/27 03:14:32;;;;;;;;;;;;;;;17.24;58.17;100581.69;5082796;28;1036;-63
2023/05/27 03:16:58;;;;;;;;;;;;;;;16.57;58.88;100574.47;5074372;28;1179;-62
2023/05/27 03:19:24;;;;;;;;;;;;;;;16.35;58.34;100577.53;5049806;28;1151;-62
2023/05/27 03:21:50;;;;;;;;;;;;;;;16.17;58.00;100570.72;5058232;28;1603;-62
2023/05/27 03:24:16;;;;;;;;;;;;;;;16.07;57.65;100581.69;5079849;28;1087;-62
2023/05/27 03:26:41;;;;;;;;;;;;;;;16.00;57.47;100584.69;5043567;28;1972;-62
2023/05/27 03:29:08;;;;;;;;;;;;;;;15.96;56.82;100575.38;5053905;28;1238;-62
2023/05/27 03:31:33;;;;;;;;;;;;;;;15.86;57.02;100576.19;5061448;28;1291;-60
2023/05/27 03:34:09;;;;;;;;;;;;;;;15.83;56.51;100587.72;5061530;28;1241;-61
2023/05/27 03:36:38;;;;;;;;;;;;;;;16.92;58.67;100586.47;5062801;28;1345;-61
2023/05/27 03:39:04;;;;;;;;;;;;;;;17.22;58.64;100589.38;5059207;28;1166;-63
2023/05/27 03:41:32;;;;;;;;;;;;;;;16.55;58.84;100586.81;5059239;28;1126;-61
2023/05/27 03:43:59;;;;;;;;;;;;;;;16.37;58.57;100589.06;5060922;28;1534;-60
2023/05/27 03:46:25;;;;;;;;;;;;;;;16.23;57.75;100586.06;5052939;28;1910;-63
2023/05/27 03:48:51;;;;;;;;;;;;;;;16.10;57.55;100591.28;5040127;28;1290;-60
2023/05/27 03:51:17;;;;;;;;;;;;;;;15.98;57.44;100595.13;5043443;28;1105;-63
2023/05/27 03:53:44;;;;;;;;;;;;;;;15.90;57.56;100587.44;5037886;28;1400;-59
2023/05/27 03:56:09;;;;;;;;;;;;;;;15.90;57.26;100592.94;5038760;28;1111;-60
2023/05/27 03:58:35;;;;;;;;;;;;;;;16.22;58.76;100600.06;5041423;28;1227;-58
2023/05/27 04:01:01;;;;;;;;;;;;;;;17.43;59.10;100596.41;5033850;28;1282;-64
2023/05/27 04:03:27;;;;;;;;;;;;;;;16.92;59.31;100596.66;5039159;28;1138;-63
2023/05/27 04:05:53;;;;;;;;;;;;;;;16.59;59.09;100599.75;5038790;28;1913;-62
2023/05/27 04:08:18;;;;;;;;;;;;;;;16.40;58.67;100594.00;5038242;28;1067;-59
2023/05/27 04:10:44;;;;;;;;;;;;;;;16.21;58.26;100599.22;5044200;28;1044;-59
2023/05/27 04:13:10;;;;;;;;;;;;;;;16.11;57.79;100601.16;5043207;28;2351;-61
2023/05/27 04:15:36;;;;;;;;;;;;;;;16.04;57.68;100596.75;5045719;28;1090;-62
2023/05/27 04:18:02;;;;;;;;;;;;;;;16.03;57.47;100591.56;5057463;28;1085;-63
2023/05/27 04:20:34;;;;;;;;;;;;;;;15.98;57.27;100594.31;5049863;28;1202;-61
2023/05/27 04:22:59;;;;;;;;;;;;;;;16.03;58.13;100599.78;5050494;28;1127;-61
2023/05/27 04:25:25;;;;;;;;;;;;;;;17.28;59.63;100593.75;5037703;28;1918;-64
2023/05/27 04:28:04;;;;;;;;;;;;;;;16.90;59.80;100582.34;5056626;28;1240;-61
2023/05/27 04:30:31;;;;;;;;;;;;;;;16.53;59.40;100580.81;5056704;28;1126;-61
2023/05/27 04:32:59;;;;;;;;;;;;;;;16.40;58.42;100577.53;5043556;28;1427;-62
2023/05/27 04:35:25;;;;;;;;;;;;;;;16.21;58.25;100588.25;5043957;28;1385;-62
2023/05/27 04:37:50;;;;;;;;;;;;;;;16.19;57.58;100584.97;5044169;28;1114;-61
2023/05/27 04:40:17;;;;;;;;;;;;;;;15.99;57.76;100585.81;5056594;28;1197;-55
2023/05/27 04:43:06;;;;;;;;;;;;;;;15.99;57.35;100590.44;5039012;28;1272;-59
2023/05/27 04:45:31;;;;;;;;;;;;;;;15.83;57.66;100593.19;5053413;28;1980;-60
2023/05/27 04:47:58;;;;;;;;;;;;;;;15.85;57.24;100595.66;5036277;28;1713;-59
2023/05/27 04:50:24;;;;;;;;;;;;;;;16.95;60.03;100598.03;5049001;28;1138;-57
2023/05/27 04:52:51;;;;;;;;;;;;;;;17.15;59.69;100595.16;5055936;28;1114;-56
2023/05/27 04:55:16;;;;;;;;;;;;;;;16.62;59.41;100598.38;5057647;28;1023;-56
2023/05/27 04:57:42;;;;;;;;;;;;;;;16.43;58.64;100600.84;5048595;28;1221;-56
2023/05/27 05:02:39;;;;;;;;;;;;;;;16.62;57.31;100614.00;5052208;28;1129;-62
2023/05/27 05:05:13;;;;;;;;;;;;;;;16.42;54.57;100618.41;5042482;28;1131;-61
2023/05/27 05:07:40;;;;;;;;;;;;;;;16.86;56.59;100619.72;5044651;28;1973;-62
2023/05/27 05:10:12;;;;;;;;;;;;;;;16.51;54.76;100625.00;5055579;28;1338;-59
2023/05/27 05:12:49;;;;;;;;;;;;;;;16.26;52.92;100612.13;5056285;28;1166;-60
2023/05/27 05:15:15;;;;;;;;;;;;;;;16.87;54.50;100618.59;5055000;28;1162;-62
2023/05/27 05:17:40;;;;;;;;;;;;;;;17.01;55.78;100621.59;5045764;28;1298;-63
2023/05/27 05:20:06;;;;;;;;;;;;;;;16.71;53.57;100621.38;5035807;28;1206;-61
2023/05/27 05:22:34;;;;;;;;;;;;;;;16.45;51.99;100617.84;5046560;28;1206;-59
2023/05/27 05:25:00;;;;;;;;;;;;;;;16.27;51.14;100633.00;5042386;28;1268;-61
2023/05/27 05:27:31;;;;;;;;;;;;;;;16.23;50.30;100629.97;5044346;28;1910;-62
2023/05/27 05:29:57;;;;;;;;;;;;;;;16.15;49.85;100633.25;5040276;28;1221;-62
2023/05/27 05:32:22;;;;;;;;;;;;;;;16.72;52.29;100624.97;5055615;28;1437;-61
2023/05/27 05:34:48;;;;;;;;;;;;;;;16.39;51.43;100628.03;5055238;28;1125;-62
2023/05/27 05:37:13;;;;;;;;;;;;;;;17.17;53.13;100630.63;5055561;28;1806;-64
2023/05/27 05:39:40;;;;;;;;;;;;;;;16.97;53.59;100632.34;5042007;28;1320;-62
2023/05/27 05:42:06;;;;;;;;;;;;;;;16.60;52.17;100630.75;5044396;28;1179;-62
2023/05/27 05:44:31;;;;;;;;;;;;;;;17.30;53.24;100634.69;5047904;28;1042;-61
2023/05/27 05:46:57;;;;;;;;;;;;;;;16.75;52.32;100641.69;5064766;28;1901;-61
2023/05/27 05:49:24;;;;;;;;;;;;;;;16.57;51.07;100637.59;5047169;28;1158;-60
2023/05/27 05:51:50;;;;;;;;;;;;;;;16.41;50.05;100642.31;5058384;28;1288;-59
2023/05/27 05:54:16;;;;;;;;;;;;;;;16.39;49.20;100646.41;5063454;28;1357;-61
2023/05/27 05:56:45;;;;;;;;;;;;;;;17.58;52.07;100641.41;5084434;28;1141;-60
2023/05/27 05:59:11;;;;;;;;;;;;;;;16.90;51.50;100638.13;5058151;28;1283;-62
2023/05/27 06:01:36;;;;;;;;;;;;;;;16.68;50.55;100643.91;5076207;28;1063;-61
2023/05/27 06:04:04;;;;;;;;;;;;;;;16.52;49.82;100642.28;5071895;28;1304;-64
2023/05/27 06:06:34;;;;;;;;;;;;;;;16.58;50.07;100646.69;5058264;28;1980;-59
2023/05/27 06:09:18;;;;;;;;;;;;;;;17.21;51.81;100648.19;5058065;28;1108;-60
2023/05/27 06:11:44;;;;;;;;;;;;;;;16.80;50.95;100645.53;5074006;28;1317;-58
2023/05/27 06:14:10;;;;;;;;;;;;;;;16.64;49.89;100653.00;5062973;28;1803;-58
2023/05/27 06:16:36;;;;;;;;;;;;;;;16.54;49.34;100656.56;5074701;28;1076;-58
2023/05/27 06:19:02;;;;;;;;;;;;;;;17.48;50.94;100657.97;5078398;28;1298;-62
2023/05/27 06:21:30;;;;;;;;;;;;;;;16.85;50.89;100651.84;5077752;28;1102;-59
2023/05/27 06:24:27;;;;;;;;;;;;;;;16.66;49.39;100659.84;5022397;28;1238;-63
2023/05/27 06:27:04;;;;;;;;;;;;;;;17.45;50.69;100654.66;5049149;28;1921;-62
2023/05/27 06:29:30;;;;;;;;;;;;;;;16.86;50.61;100653.50;5070897;28;1198;-62
2023/05/27 06:31:56;;;;;;;;;;;;;;;16.62;50.05;100660.66;5057947;28;1197;-61
2023/05/27 06:34:22;;;;;;;;;;;;;;;16.64;48.89;100662.03;5057872;28;1199;-61
2023/05/27 06:36:48;;;;;;;;;;;;;;;16.54;48.74;100656.56;5078869;28;1138;-64
2023/05/27 06:39:15;;;;;;;;;;;;;;;16.97;50.63;100648.00;5059847;28;1180;-63
2023/05/27 06:41:41;;;;;;;;;;;;;;;16.73;49.57;100651.31;5095843;28;1067;-62
2023/05/27 06:44:42;;;;;;;;;;;;;;;16.49;48.74;100651.06;4987998;28;1399;-60
2023/05/27 06:47:13;;;;;;;;;;;;;;;16.49;48.11;100645.59;5041453;28;1902;-63
2023/05/27 06:49:40;;;;;;;;;;;;;;;17.35;49.42;100643.72;5042117;28;1158;-58
2023/05/27 06:52:06;;;;;;;;;;;;;;;16.83;49.74;100653.22;5053941;28;1395;-62
2023/05/27 06:54:42;;;;;;;;;;;;;;;16.66;48.98;100648.03;5054549;28;1402;-60
2023/05/27 06:57:43;;;;;;;;;;;;;;;16.43;48.32;100648.31;4991514;28;1123;-58
2023/05/27 07:00:14;;;;;;;;;;;;;;;17.41;49.66;100650.84;5035041;28;1417;-60
2023/05/27 07:02:51;;;;;;;;;;;;;;;16.80;49.79;100648.28;5057513;28;1145;-61
2023/05/27 07:05:17;;;;;;;;;;;;;;;16.65;50.00;100649.97;5044116;28;1110;-63
2023/05/27 07:07:43;;;;;;;;;;;;;;;17.13;50.27;100654.28;5046644;28;1910;-62
2023/05/27 07:10:08;;;;;;;;;;;;;;;16.74;49.87;100650.22;5058088;28;1110;-62
2023/05/27 07:12:34;;;;;;;;;;;;;;;16.64;49.07;100645.56;5057765;28;1335;-62
2023/05/27 07:15:16;;;;;;;;;;;;;;;16.57;48.50;100647.78;5054431;28;1182;-61
2023/05/27 07:17:42;;;;;;;;;;;;;;;16.65;47.71;100654.63;5048395;28;1230;-61
2023/05/27 07:20:08;;;;;;;;;;;;;;;16.42;47.64;100651.34;5054074;28;1306;-62
2023/05/27 07:22:34;;;;;;;;;;;;;;;17.03;48.99;100647.69;5037644;28;2200;-61
2023/05/27 07:24:59;;;;;;;;;;;;;;;16.81;49.42;100649.94;5051515;28;1330;-61
2023/05/27 07:27:29;;;;;;;;;;;;;;;16.65;48.60;100649.97;5048428;28;1981;-60
2023/05/27 07:29:58;;;;;;;;;;;;;;;16.53;48.09;100652.16;5053216;28;1207;-61
2023/05/27 07:32:40;;;;;;;;;;;;;;;17.65;49.79;100652.91;5051473;28;1222;-62
2023/05/27 07:35:06;;;;;;;;;;;;;;;16.92;50.12;100651.59;5050823;28;1126;-58
2023/05/27 07:37:31;;;;;;;;;;;;;;;16.77;49.17;100650.50;5052327;28;1213;-59
2023/05/27 07:39:57;;;;;;;;;;;;;;;17.61;49.94;100651.84;5044829;28;1276;-61
2023/05/27 07:42:22;;;;;;;;;;;;;;;16.99;49.99;100645.81;5044005;28;1155;-61
2023/05/27 07:44:48;;;;;;;;;;;;;;;16.81;48.93;100639.75;5046679;28;1358;-61
2023/05/27 07:47:14;;;;;;;;;;;;;;;16.69;48.42;100642.81;5057142;28;1981;-63
2023/05/27 07:49:40;;;;;;;;;;;;;;;16.70;47.55;100644.44;5057676;28;1215;-60
2023/05/27 07:52:25;;;;;;;;;;;;;;;16.40;47.67;100642.59;5055197;28;1020;-60
2023/05/27 07:54:51;;;;;;;;;;;;;;;16.40;47.19;100640.66;5047033;28;1218;-59
2023/05/27 07:57:18;;;;;;;;;;;;;;;16.51;47.47;100638.72;5056627;28;1360;-61
2023/05/27 07:59:44;;;;;;;;;;;;;;;16.88;48.88;100636.72;5048040;28;1150;-61
2023/05/27 08:02:10;;;;;;;;;;;;;;;16.65;48.40;100630.75;5036436;28;1129;-61
2023/05/27 08:04:37;;;;;;;;;;;;;;;16.61;48.63;100635.16;5023830;28;1241;-62
2023/05/27 08:07:22;;;;;;;;;;;;;;;16.99;49.57;100638.38;5049641;28;1973;-63
2023/05/27 08:10:09;;;;;;;;;;;;;;;16.77;48.63;100631.28;5054087;28;1226;-61
2023/05/27 08:12:57;;;;;;;;;;;;;;;16.70;47.77;100632.66;5050068;28;1086;-60
2023/05/27 08:15:36;;;;;;;;;;;;;;;16.50;47.88;100633.50;5056786;28;1189;-61
2023/05/27 08:18:15;;;;;;;;;;;;;;;17.37;49.23;100644.25;5055291;28;1240;-59
2023/05/27 08:20:45;;;;;;;;;;;;;;;16.85;49.21;100646.34;5046371;28;1095;-61
2023/05/27 08:23:20;;;;;;;;;;;;;;;16.70;48.53;100644.44;5034006;28;1342;-64
2023/05/27 08:26:14;;;;;;;;;;;;;;;16.59;47.84;100640.91;5029357;28;1893;-62
2023/05/27 08:29:00;;;;;;;;;;;;;;;16.41;47.84;100642.31;5022045;28;1199;-63
2023/05/27 08:31:44;;;;;;;;;;;;;;;17.34;49.63;100636.59;5044972;28;1094;-62
2023/05/27 08:34:10;;;;;;;;;;;;;;;16.94;49.39;100632.88;5055647;28;1175;-63
2023/05/27 08:36:36;;;;;;;;;;;;;;;16.72;48.66;100619.47;5057620;28;1113;-65
2023/05/27 08:39:02;;;;;;;;;;;;;;;16.66;48.14;100621.41;5052780;28;1301;-63
2023/05/27 08:41:38;;;;;;;;;;;;;;;16.55;47.88;100606.03;5042521;28;1311;-61
2023/05/27 08:44:04;;;;;;;;;;;;;;;16.52;47.38;100612.09;5036520;28;1389;-62
2023/05/27 08:46:31;;;;;;;;;;;;;;;16.48;47.31;100608.25;5061198;28;1970;-66
2023/05/27 08:48:57;;;;;;;;;;;;;;;16.41;47.14;100598.41;5079985;28;1137;-64
2023/05/27 08:51:22;;;;;;;;;;;;;;;17.75;48.59;100597.88;5049582;28;1127;-65
2023/05/27 08:53:48;;;;;;;;;;;;;;;16.92;49.68;100596.66;5080057;28;1086;-59
2023/05/27 08:56:15;;;;;;;;;;;;;;;16.85;48.84;100587.84;5078748;28;1196;-63
2023/05/27 08:58:43;;;;;;;;;;;;;;;16.65;48.25;100583.22;5054445;28;1214;-62
2023/05/27 09:01:09;;;;;;;;;;;;;;;16.64;47.70;100585.16;5046584;28;1203;-59
2023/05/27 09:03:35;;;;;;;;;;;;;;;16.52;47.71;100590.13;5074299;28;1484;-65
2023/05/27 09:06:04;;;;;;;;;;;;;;;16.53;47.29;100589.03;5067350;28;1913;-61
2023/05/27 09:08:29;;;;;;;;;;;;;;;16.38;47.44;100581.66;5095763;28;1027;-62
2023/05/27 09:10:55;;;;;;;;;;;;;;;16.43;47.01;100578.91;5077473;28;1091;-63
2023/05/27 09:13:27;;;;;;;;;;;;;;;16.38;46.61;100571.50;5076751;28;1161;-63
2023/05/27 09:16:02;;;;;;;;;;;;;;;16.33;46.85;100574.25;5085551;28;1201;-64
2023/05/27 09:18:28;;;;;;;;;;;;;;;17.02;48.98;100571.88;5094060;28;1066;-66
2023/05/27 09:20:55;;;;;;;;;;;;;;;16.71;48.69;100580.19;5096751;28;1049;-65
2023/05/27 09:23:20;;;;;;;;;;;;;;;16.54;48.42;100555.00;5063234;28;1152;-63
2023/05/27 09:25:46;;;;;;;;;;;;;;;16.45;47.96;100565.72;5088167;28;1902;-61
2023/05/27 09:28:12;;;;;;;;;;;;;;;16.39;47.45;100558.59;5092991;28;992;-65
2023/05/27 09:30:37;;;;;;;;;;;;;;;17.63;48.75;100558.91;5086651;28;1253;-64
2023/05/27 09:33:04;;;;;;;;;;;;;;;16.84;49.62;100561.50;5085409;28;1110;-66
2023/05/27 09:35:29;;;;;;;;;;;;;;;16.71;48.59;100563.72;5089574;28;991;-64
2023/05/27 09:38:05;;;;;;;;;;;;;;;16.62;48.03;100568.16;5076688;28;1137;-66
2023/05/27 09:40:30;;;;;;;;;;;;;;;16.56;47.68;100572.00;5081880;28;1103;-60
2023/05/27 09:42:56;;;;;;;;;;;;;;;16.48;47.31;100556.09;5090830;28;1167;-62
2023/05/27 09:45:21;;;;;;;;;;;;;;;17.34;48.50;100553.31;5071104;28;1094;-66
2023/05/27 09:47:47;;;;;;;;;;;;;;;16.84;48.59;100539.53;5058819;28;1980;-64
2023/05/27 09:50:14;;;;;;;;;;;;;;;16.55;48.40;100542.91;5089063;28;1124;-65
2023/05/27 09:52:40;;;;;;;;;;;;;;;16.53;47.62;100539.63;5096521;28;1030;-65
2023/05/27 09:55:07;;;;;;;;;;;;;;;16.46;47.26;100537.19;5084101;28;1126;-65
2023/05/27 09:57:33;;;;;;;;;;;;;;;16.87;47.88;100550.78;5095968;28;1039;-61
2023/05/27 09:59:59;;;;;;;;;;;;;;;16.97;48.89;100544.44;5059814;28;1082;-63
2023/05/27 10:02:25;;;;;;;;;;;;;;;16.67;48.42;100529.69;5078332;28;1202;-63
2023/05/27 10:04:51;;;;;;;;;;;;;;;16.64;47.65;100527.50;5054629;28;1009;-61
2023/05/27 10:07:18;;;;;;;;;;;;;;;16.51;47.44;100534.44;5056098;28;1901;-63
2023/05/27 10:09:44;;;;;;;;;;;;;;;16.66;47.77;100536.31;5069737;28;1215;-64
2023/05/27 10:12:10;;;;;;;;;;;;;;;17.17;48.89;100539.97;5068118;28;1285;-63
2023/05/27 10:14:35;;;;;;;;;;;;;;;16.71;48.83;100546.44;5071985;28;1100;-61
2023/05/27 10:17:01;;;;;;;;;;;;;;;16.60;47.94;100557.44;5076259;28;902;-61
2023/05/27 10:19:26;;;;;;;;;;;;;;;16.56;47.50;100561.03;5089483;28;1198;-64
2023/05/27 10:21:52;;;;;;;;;;;;;;;16.43;47.21;100557.75;5087306;28;1138;-60
2023/05/27 10:24:18;;;;;;;;;;;;;;;17.26;48.43;100565.72;5047493;28;1162;-59
2023/05/27 10:26:44;;;;;;;;;;;;;;;17.12;48.96;100557.28;5076452;28;1910;-60
2023/05/27 10:29:10;;;;;;;;;;;;;;;16.77;48.58;100548.91;5076042;28;995;-63
2023/05/27 10:31:37;;;;;;;;;;;;;;;16.65;47.83;100548.38;5047467;28;1062;-63
2023/05/27 10:34:08;;;;;;;;;;;;;;;16.50;47.43;100542.94;5093300;28;1334;-65
2023/05/27 10:36:36;;;;;;;;;;;;;;;16.48;47.19;100543.22;5083657;28;1075;-64
2023/05/27 10:39:04;;;;;;;;;;;;;;;17.23;48.08;100550.63;5094756;28;1452;-62
2023/05/27 10:41:39;;;;;;;;;;;;;;;16.98;49.17;100564.50;5082990;28;879;-64
2023/05/27 10:44:04;;;;;;;;;;;;;;;16.76;48.49;100577.44;5070969;28;1110;-64
2023/05/27 10:46:37;;;;;;;;;;;;;;;16.63;47.99;100583.50;5081180;28;1906;-61
2023/05/27 10:49:35;;;;;;;;;;;;;;;16.60;47.12;100586.81;5093299;28;1078;-63
2023/05/27 10:52:10;;;;;;;;;;;;;;;17.21;48.69;100591.31;5038121;28;1349;-61
2023/05/27 10:54:36;;;;;;;;;;;;;;;16.74;48.67;100590.63;5076085;28;1105;-64
2023/05/27 10:57:02;;;;;;;;;;;;;;;16.63;47.80;100588.19;5078745;28;1237;-60
2023/05/27 10:59:33;;;;;;;;;;;;;;;17.47;48.99;100569.16;5095806;28;1108;-60
2023/05/27 11:01:58;;;;;;;;;;;;;;;16.97;49.04;100571.91;5078071;28;1149;-65
2023/05/27 11:04:24;;;;;;;;;;;;;;;16.73;48.33;100558.78;5085867;28;1114;-62
2023/05/27 11:06:56;;;;;;;;;;;;;;;16.65;47.85;100572.25;5076213;28;1980;-64
2023/05/27 11:09:22;;;;;;;;;;;;;;;16.70;47.11;100564.00;5075879;28;1074;-63
2023/05/27 11:11:47;;;;;;;;;;;;;;;16.52;46.96;100549.81;5089243;28;1058;-62
2023/05/27 11:14:13;;;;;;;;;;;;;;;17.22;48.04;100556.41;5075819;28;1066;-63
2023/05/27 11:16:38;;;;;;;;;;;;;;;17.13;49.26;100552.63;5075163;28;1054;-61
2023/05/27 11:19:04;;;;;;;;;;;;;;;16.77;48.80;100543.41;5087146;28;1126;-63
2023/05/27 11:21:29;;;;;;;;;;;;;;;16.66;48.05;100529.97;5095919;28;1054;-62
2023/05/27 11:23:56;;;;;;;;;;;;;;;16.57;47.63;100529.75;5067182;28;1245;-62
2023/05/27 11:26:22;;;;;;;;;;;;;;;16.53;46.86;100529.47;5075167;28;1976;-63
2023/05/27 11:28:48;;;;;;;;;;;;;;;16.46;46.78;100531.69;5075243;28;1066;-64
2023/05/27 11:31:14;;;;;;;;;;;;;;;16.58;47.63;100536.88;5090944;28;1923;-63
2023/05/27 11:33:44;;;;;;;;;;;;;;;17.00;48.53;100532.91;5080093;28;1150;-62
2023/05/27 11:36:13;;;;;;;;;;;;;;;16.68;48.30;100541.53;5075982;28;1058;-62
2023/05/27 11:38:59;;;;;;;;;;;;;;;16.64;47.39;100533.00;5078318;28;1110;-62
2023/05/27 11:41:26;;;;;;;;;;;;;;;16.48;47.11;100531.41;5094511;28;2001;-60
2023/05/27 11:43:54;;;;;;;;;;;;;;;16.51;46.58;100530.84;5091828;28;1065;-64
2023/05/27 11:46:20;;;;;;;;;;;;;;;16.36;46.82;100528.97;5091381;28;1919;-63
2023/05/27 11:48:45;;;;;;;;;;;;;;;16.55;47.04;100521.78;5085906;28;1118;-58
2023/05/27 11:51:11;;;;;;;;;;;;;;;17.07;48.46;100519.66;5099097;28;1015;-60
2023/05/27 11:53:46;;;;;;;;;;;;;;;16.72;48.10;100521.44;5085647;28;1137;-61
2023/05/27 11:56:12;;;;;;;;;;;;;;;16.60;47.61;100523.69;5092716;28;1205;-62
2023/05/27 11:58:37;;;;;;;;;;;;;;;16.48;47.26;100531.41;5099006;28;1030;-61
2023/05/27 12:01:03;;;;;;;;;;;;;;;17.13;48.75;100534.19;5085021;28;1188;-60
2023/05/27 12:03:29;;;;;;;;;;;;;;;16.77;48.54;100532.41;5098634;28;1050;-62
2023/05/27 12:05:55;;;;;;;;;;;;;;;16.56;47.93;100528.94;5085003;28;1914;-61
2023/05/27 12:08:20;;;;;;;;;;;;;;;16.55;47.32;100540.16;5085735;28;1109;-61
2023/05/27 12:10:50;;;;;;;;;;;;;;;16.50;47.08;100529.22;5084637;28;1150;-61
2023/05/27 12:13:15;;;;;;;;;;;;;;;16.46;46.85;100539.91;5086633;28;1189;-61
2023/05/27 12:15:41;;;;;;;;;;;;;;;17.38;48.17;100540.66;5098508;28;1041;-58
2023/05/27 12:18:06;;;;;;;;;;;;;;;16.82;48.65;100536.25;5078943;28;1280;-63
2023/05/27 12:20:32;;;;;;;;;;;;;;;16.56;48.39;100541.81;5078081;28;1106;-58
2023/05/27 12:22:58;;;;;;;;;;;;;;;16.52;47.47;100548.97;5091591;28;1119;-61
2023/05/27 12:25:23;;;;;;;;;;;;;;;16.54;46.94;100555.00;5085333;28;1042;-59
2023/05/27 12:27:49;;;;;;;;;;;;;;;17.19;48.71;100559.72;5083831;28;1964;-60
2023/05/27 12:30:15;;;;;;;;;;;;;;;16.70;48.85;100570.31;5071138;28;842;-60
2023/05/27 12:32:41;;;;;;;;;;;;;;;16.61;48.06;100572.00;5079293;28;1234;-60
2023/05/27 12:35:07;;;;;;;;;;;;;;;16.94;48.44;100583.44;5072639;28;1217;-60
2023/05/27 12:37:33;;;;;;;;;;;;;;;17.15;48.77;100575.94;5063520;28;1186;-60
2023/05/27 12:39:58;;;;;;;;;;;;;;;16.82;48.50;100577.44;5089086;28;1059;-61
2023/05/27 12:42:23;;;;;;;;;;;;;;;16.64;47.99;100576.13;5097763;28;880;-60
2023/05/27 12:44:49;;;;;;;;;;;;;;;17.44;48.54;100570.56;5097824;28;1141;-58
2023/05/27 12:47:15;;;;;;;;;;;;;;;16.90;49.20;100561.22;5097602;28;1897;-58
2023/05/27 12:49:42;;;;;;;;;;;;;;;16.80;48.39;100576.88;5097379;28;1117;-61
2023/05/27 12:52:07;;;;;;;;;;;;;;;16.68;47.47;100569.78;5086435;28;1081;-61
2023/05/27 12:54:33;;;;;;;;;;;;;;;16.58;47.17;100567.88;5058326;28;973;-61